sensor_id;sensor_type;location;lat;lon;timestamp;P1;durP1;ratioP1;P2;durP2;ratioP2
76131;SDS011;64877;50.994;13.650;2023-04-24T00:01:12;5.55;;;3.60;;
76131;SDS011;64877;50.994;13.650;2023-04-24T00:03:38;7.18;;;3.50;;
76131;SDS011;64877;50.994;13.650;2023-04-24T00:06:04;6.95;;;3.78;;
76131;SDS011;64877;50.994;13.650;2023-04-24T00:08:31;6.28;;;3.85;;
76131;SDS011;64877;50.994;13.650;2023-04-24T00:10:57;6.28;;;3.60;;
76131;SDS011;64877;50.994;13.650;2023-04-24T00:13:22;7.85;;;4.97;;
76131;SDS011;64877;50.994;13.650;2023-04-24T00:15:48;7.88;;;4.20;;
76131;SDS011;64877;50.994;13.650;2023-04-24T00:18:14;8.48;;;4.40;;
76131;SDS011;64877;50.994;13.650;2023-04-24T00:20:39;10.60;;;4.80;;
76131;SDS011;64877;50.994;13.650;2023-04-24T00:23:05;7.88;;;5.68;;
76131;SDS011;64877;50.994;13.650;2023-04-24T00:25:30;7.80;;;5.45;;
76131;SDS011;64877;50.994;13.650;2023-04-24T00:27:56;8.13;;;5.35;;
76131;SDS011;64877;50.994;13.650;2023-04-24T00:30:21;7.55;;;4.90;;
76131;SDS011;64877;50.994;13.650;2023-04-24T00:32:47;6.45;;;4.35;;
76131;SDS011;64877;50.994;13.650;2023-04-24T00:35:12;6.35;;;4.13;;
76131;SDS011;64877;50.994;13.650;2023-04-24T00:37:37;7.28;;;4.47;;
76131;SDS011;64877;50.994;13.650;2023-04-24T00:40:03;6.22;;;4.60;;
76131;SDS011;64877;50.994;13.650;2023-04-24T00:42:29;6.90;;;4.70;;
76131;SDS011;64877;50.994;13.650;2023-04-24T00:44:55;9.18;;;5.35;;
76131;SDS011;64877;50.994;13.650;2023-04-24T00:47:21;6.55;;;4.40;;
76131;SDS011;64877;50.994;13.650;2023-04-24T00:49:48;8.80;;;4.60;;
76131;SDS011;64877;50.994;13.650;2023-04-24T00:52:14;6.75;;;4.07;;
76131;SDS011;64877;50.994;13.650;2023-04-24T00:54:42;5.00;;;3.10;;
76131;SDS011;64877;50.994;13.650;2023-04-24T00:57:10;5.32;;;3.40;;
76131;SDS011;64877;50.994;13.650;2023-04-24T00:59:36;4.88;;;3.60;;
76131;SDS011;64877;50.994;13.650;2023-04-24T01:02:02;9.23;;;4.85;;
76131;SDS011;64877;50.994;13.650;2023-04-24T01:04:28;7.70;;;4.25;;
76131;SDS011;64877;50.994;13.650;2023-04-24T01:06:54;7.20;;;4.35;;
76131;SDS011;64877;50.994;13.650;2023-04-24T01:09:21;5.57;;;3.75;;
76131;SDS011;64877;50.994;13.650;2023-04-24T01:11:48;5.80;;;4.07;;
76131;SDS011;64877;50.994;13.650;2023-04-24T01:14:14;7.38;;;4.25;;
76131;SDS011;64877;50.994;13.650;2023-04-24T01:16:40;6.13;;;4.05;;
76131;SDS011;64877;50.994;13.650;2023-04-24T01:19:06;5.90;;;3.80;;
76131;SDS011;64877;50.994;13.650;2023-04-24T01:21:34;8.55;;;4.60;;
76131;SDS011;64877;50.994;13.650;2023-04-24T01:24:01;10.73;;;4.63;;
76131;SDS011;64877;50.994;13.650;2023-04-24T01:26:27;6.38;;;4.25;;
76131;SDS011;64877;50.994;13.650;2023-04-24T01:28:53;9.35;;;4.68;;
76131;SDS011;64877;50.994;13.650;2023-04-24T01:31:18;7.05;;;4.45;;
76131;SDS011;64877;50.994;13.650;2023-04-24T01:33:44;8.02;;;4.43;;
76131;SDS011;64877;50.994;13.650;2023-04-24T01:36:13;7.38;;;4.03;;
76131;SDS011;64877;50.994;13.650;2023-04-24T01:38:38;7.60;;;4.15;;
76131;SDS011;64877;50.994;13.650;2023-04-24T01:41:04;7.25;;;3.78;;
76131;SDS011;64877;50.994;13.650;2023-04-24T01:43:29;6.25;;;4.25;;
76131;SDS011;64877;50.994;13.650;2023-04-24T01:45:55;6.63;;;3.80;;
76131;SDS011;64877;50.994;13.650;2023-04-24T01:48:20;5.72;;;3.42;;
76131;SDS011;64877;50.994;13.650;2023-04-24T01:50:47;4.53;;;3.22;;
76131;SDS011;64877;50.994;13.650;2023-04-24T01:53:12;4.80;;;3.53;;
76131;SDS011;64877;50.994;13.650;2023-04-24T01:55:37;6.70;;;4.50;;
76131;SDS011;64877;50.994;13.650;2023-04-24T01:58:03;6.97;;;4.15;;
76131;SDS011;64877;50.994;13.650;2023-04-24T02:00:29;6.50;;;4.55;;
76131;SDS011;64877;50.994;13.650;2023-04-24T02:02:54;6.80;;;4.53;;
76131;SDS011;64877;50.994;13.650;2023-04-24T02:05:20;6.95;;;4.30;;
76131;SDS011;64877;50.994;13.650;2023-04-24T02:07:45;6.70;;;4.30;;
76131;SDS011;64877;50.994;13.650;2023-04-24T02:10:11;6.85;;;4.38;;
76131;SDS011;64877;50.994;13.650;2023-04-24T02:12:37;6.20;;;4.13;;
76131;SDS011;64877;50.994;13.650;2023-04-24T02:15:02;5.65;;;3.85;;
76131;SDS011;64877;50.994;13.650;2023-04-24T02:17:28;8.63;;;4.60;;
76131;SDS011;64877;50.994;13.650;2023-04-24T02:19:53;7.50;;;4.55;;
76131;SDS011;64877;50.994;13.650;2023-04-24T02:22:19;5.93;;;3.95;;
76131;SDS011;64877;50.994;13.650;2023-04-24T02:24:44;6.63;;;3.88;;
76131;SDS011;64877;50.994;13.650;2023-04-24T02:27:10;7.05;;;4.32;;
76131;SDS011;64877;50.994;13.650;2023-04-24T02:29:36;7.38;;;4.07;;
76131;SDS011;64877;50.994;13.650;2023-04-24T02:32:01;9.90;;;5.47;;
76131;SDS011;64877;50.994;13.650;2023-04-24T02:34:27;8.18;;;5.03;;
76131;SDS011;64877;50.994;13.650;2023-04-24T02:36:52;7.22;;;4.68;;
76131;SDS011;64877;50.994;13.650;2023-04-24T02:39:19;8.75;;;5.50;;
76131;SDS011;64877;50.994;13.650;2023-04-24T02:41:44;7.93;;;4.97;;
76131;SDS011;64877;50.994;13.650;2023-04-24T02:44:10;10.13;;;5.63;;
76131;SDS011;64877;50.994;13.650;2023-04-24T02:46:35;9.20;;;5.75;;
76131;SDS011;64877;50.994;13.650;2023-04-24T02:49:01;10.38;;;5.30;;
76131;SDS011;64877;50.994;13.650;2023-04-24T02:51:26;7.30;;;4.47;;
76131;SDS011;64877;50.994;13.650;2023-04-24T02:53:52;9.55;;;4.78;;
76131;SDS011;64877;50.994;13.650;2023-04-24T02:56:17;7.15;;;4.30;;
76131;SDS011;64877;50.994;13.650;2023-04-24T02:58:43;8.52;;;4.57;;
76131;SDS011;64877;50.994;13.650;2023-04-24T03:01:09;7.50;;;4.45;;
76131;SDS011;64877;50.994;13.650;2023-04-24T03:03:35;7.72;;;3.92;;
76131;SDS011;64877;50.994;13.650;2023-04-24T03:06:01;8.68;;;3.65;;
76131;SDS011;64877;50.994;13.650;2023-04-24T03:08:26;6.60;;;3.40;;
76131;SDS011;64877;50.994;13.650;2023-04-24T03:10:52;5.20;;;2.90;;
76131;SDS011;64877;50.994;13.650;2023-04-24T03:13:17;7.13;;;2.70;;
76131;SDS011;64877;50.994;13.650;2023-04-24T03:15:42;3.90;;;2.63;;
76131;SDS011;64877;50.994;13.650;2023-04-24T03:18:08;4.53;;;2.20;;
76131;SDS011;64877;50.994;13.650;2023-04-24T03:20:33;4.63;;;2.50;;
76131;SDS011;64877;50.994;13.650;2023-04-24T03:22:59;4.00;;;2.50;;
76131;SDS011;64877;50.994;13.650;2023-04-24T03:25:24;4.28;;;2.35;;
76131;SDS011;64877;50.994;13.650;2023-04-24T03:27:50;4.35;;;1.77;;
76131;SDS011;64877;50.994;13.650;2023-04-24T03:30:16;3.03;;;1.60;;
76131;SDS011;64877;50.994;13.650;2023-04-24T03:32:41;2.75;;;1.45;;
76131;SDS011;64877;50.994;13.650;2023-04-24T03:35:07;2.67;;;1.23;;
76131;SDS011;64877;50.994;13.650;2023-04-24T03:37:33;2.58;;;1.33;;
76131;SDS011;64877;50.994;13.650;2023-04-24T03:39:59;2.83;;;0.90;;
76131;SDS011;64877;50.994;13.650;2023-04-24T03:42:24;1.80;;;1.00;;
76131;SDS011;64877;50.994;13.650;2023-04-24T03:44:49;1.80;;;1.10;;
76131;SDS011;64877;50.994;13.650;2023-04-24T03:47:15;1.88;;;0.98;;
76131;SDS011;64877;50.994;13.650;2023-04-24T03:49:40;2.08;;;0.90;;
76131;SDS011;64877;50.994;13.650;2023-04-24T03:52:05;2.53;;;0.90;;
76131;SDS011;64877;50.994;13.650;2023-04-24T03:54:31;1.50;;;0.60;;
76131;SDS011;64877;50.994;13.650;2023-04-24T03:56:56;3.47;;;0.80;;
76131;SDS011;64877;50.994;13.650;2023-04-24T03:59:22;2.28;;;0.85;;
76131;SDS011;64877;50.994;13.650;2023-04-24T04:01:47;2.85;;;0.70;;
76131;SDS011;64877;50.994;13.650;2023-04-24T04:04:13;2.22;;;0.80;;
76131;SDS011;64877;50.994;13.650;2023-04-24T04:06:38;3.05;;;0.93;;
76131;SDS011;64877;50.994;13.650;2023-04-24T04:09:04;2.03;;;0.65;;
76131;SDS011;64877;50.994;13.650;2023-04-24T04:11:29;0.95;;;0.57;;
76131;SDS011;64877;50.994;13.650;2023-04-24T04:13:55;1.15;;;0.60;;
76131;SDS011;64877;50.994;13.650;2023-04-24T04:16:21;2.20;;;0.70;;
76131;SDS011;64877;50.994;13.650;2023-04-24T04:18:47;1.60;;;0.80;;
76131;SDS011;64877;50.994;13.650;2023-04-24T04:21:13;2.28;;;0.68;;
76131;SDS011;64877;50.994;13.650;2023-04-24T04:23:38;2.08;;;0.68;;
76131;SDS011;64877;50.994;13.650;2023-04-24T04:26:04;2.17;;;0.60;;
76131;SDS011;64877;50.994;13.650;2023-04-24T04:28:30;3.08;;;0.70;;
76131;SDS011;64877;50.994;13.650;2023-04-24T04:30:56;1.80;;;0.70;;
76131;SDS011;64877;50.994;13.650;2023-04-24T04:33:22;2.17;;;0.80;;
76131;SDS011;64877;50.994;13.650;2023-04-24T04:35:48;3.03;;;0.70;;
76131;SDS011;64877;50.994;13.650;2023-04-24T04:38:14;1.60;;;0.70;;
76131;SDS011;64877;50.994;13.650;2023-04-24T04:40:41;3.60;;;0.90;;
76131;SDS011;64877;50.994;13.650;2023-04-24T04:43:07;3.92;;;0.70;;
76131;SDS011;64877;50.994;13.650;2023-04-24T04:45:32;2.00;;;0.57;;
76131;SDS011;64877;50.994;13.650;2023-04-24T04:47:59;1.98;;;0.70;;
76131;SDS011;64877;50.994;13.650;2023-04-24T04:50:28;3.15;;;0.90;;
76131;SDS011;64877;50.994;13.650;2023-04-24T04:52:54;2.15;;;0.60;;
76131;SDS011;64877;50.994;13.650;2023-04-24T04:55:19;2.08;;;1.00;;
76131;SDS011;64877;50.994;13.650;2023-04-24T04:57:45;1.30;;;0.60;;
76131;SDS011;64877;50.994;13.650;2023-04-24T05:00:11;1.67;;;0.57;;
76131;SDS011;64877;50.994;13.650;2023-04-24T05:02:37;2.10;;;0.80;;
76131;SDS011;64877;50.994;13.650;2023-04-24T05:05:04;4.00;;;1.77;;
76131;SDS011;64877;50.994;13.650;2023-04-24T05:07:30;3.40;;;0.70;;
76131;SDS011;64877;50.994;13.650;2023-04-24T05:09:56;1.73;;;0.60;;
76131;SDS011;64877;50.994;13.650;2023-04-24T05:12:21;3.78;;;0.70;;
76131;SDS011;64877;50.994;13.650;2023-04-24T05:14:46;2.38;;;0.75;;
76131;SDS011;64877;50.994;13.650;2023-04-24T05:17:12;3.92;;;0.65;;
76131;SDS011;64877;50.994;13.650;2023-04-24T05:19:37;1.48;;;0.60;;
76131;SDS011;64877;50.994;13.650;2023-04-24T05:22:03;1.52;;;0.50;;
76131;SDS011;64877;50.994;13.650;2023-04-24T05:24:31;2.22;;;0.68;;
76131;SDS011;64877;50.994;13.650;2023-04-24T05:26:57;1.60;;;0.65;;
76131;SDS011;64877;50.994;13.650;2023-04-24T05:29:23;2.05;;;0.60;;
76131;SDS011;64877;50.994;13.650;2023-04-24T05:31:49;6.55;;;0.80;;
76131;SDS011;64877;50.994;13.650;2023-04-24T05:34:14;2.42;;;0.50;;
76131;SDS011;64877;50.994;13.650;2023-04-24T05:36:41;1.70;;;0.60;;
76131;SDS011;64877;50.994;13.650;2023-04-24T05:39:07;2.53;;;0.85;;
76131;SDS011;64877;50.994;13.650;2023-04-24T05:41:33;4.00;;;1.02;;
76131;SDS011;64877;50.994;13.650;2023-04-24T05:43:59;3.22;;;1.25;;
76131;SDS011;64877;50.994;13.650;2023-04-24T05:46:24;3.22;;;0.90;;
76131;SDS011;64877;50.994;13.650;2023-04-24T05:48:50;5.10;;;1.20;;
76131;SDS011;64877;50.994;13.650;2023-04-24T05:51:15;1.75;;;0.98;;
76131;SDS011;64877;50.994;13.650;2023-04-24T05:53:41;3.53;;;1.45;;
76131;SDS011;64877;50.994;13.650;2023-04-24T05:56:06;1.27;;;0.60;;
76131;SDS011;64877;50.994;13.650;2023-04-24T05:58:32;1.80;;;0.60;;
76131;SDS011;64877;50.994;13.650;2023-04-24T06:00:57;1.73;;;0.70;;
76131;SDS011;64877;50.994;13.650;2023-04-24T06:03:23;1.30;;;0.60;;
76131;SDS011;64877;50.994;13.650;2023-04-24T06:05:52;2.40;;;0.70;;
76131;SDS011;64877;50.994;13.650;2023-04-24T06:08:17;2.45;;;0.80;;
76131;SDS011;64877;50.994;13.650;2023-04-24T06:10:42;2.42;;;0.50;;
76131;SDS011;64877;50.994;13.650;2023-04-24T06:13:08;2.15;;;0.90;;
76131;SDS011;64877;50.994;13.650;2023-04-24T06:15:33;1.80;;;0.70;;
76131;SDS011;64877;50.994;13.650;2023-04-24T06:17:59;1.20;;;0.50;;
76131;SDS011;64877;50.994;13.650;2023-04-24T06:20:24;1.42;;;0.70;;
76131;SDS011;64877;50.994;13.650;2023-04-24T06:22:50;2.78;;;0.70;;
76131;SDS011;64877;50.994;13.650;2023-04-24T06:25:15;3.45;;;0.90;;
76131;SDS011;64877;50.994;13.650;2023-04-24T06:27:41;2.40;;;0.80;;
76131;SDS011;64877;50.994;13.650;2023-04-24T06:30:06;3.05;;;0.68;;
76131;SDS011;64877;50.994;13.650;2023-04-24T06:32:32;3.08;;;1.20;;
76131;SDS011;64877;50.994;13.650;2023-04-24T06:34:58;4.68;;;1.50;;
76131;SDS011;64877;50.994;13.650;2023-04-24T06:37:23;3.30;;;1.00;;
76131;SDS011;64877;50.994;13.650;2023-04-24T06:39:49;2.78;;;0.93;;
76131;SDS011;64877;50.994;13.650;2023-04-24T06:42:14;4.25;;;1.15;;
76131;SDS011;64877;50.994;13.650;2023-04-24T06:44:40;1.80;;;0.82;;
76131;SDS011;64877;50.994;13.650;2023-04-24T06:47:08;3.92;;;1.10;;
76131;SDS011;64877;50.994;13.650;2023-04-24T06:49:38;1.75;;;0.70;;
76131;SDS011;64877;50.994;13.650;2023-04-24T06:52:04;4.40;;;1.20;;
76131;SDS011;64877;50.994;13.650;2023-04-24T06:54:30;3.20;;;0.80;;
76131;SDS011;64877;50.994;13.650;2023-04-24T06:56:56;6.63;;;0.82;;
76131;SDS011;64877;50.994;13.650;2023-04-24T06:59:26;6.25;;;0.70;;
76131;SDS011;64877;50.994;13.650;2023-04-24T07:01:52;2.60;;;0.70;;
76131;SDS011;64877;50.994;13.650;2023-04-24T07:04:17;3.40;;;1.27;;
76131;SDS011;64877;50.994;13.650;2023-04-24T07:06:44;3.67;;;1.00;;
76131;SDS011;64877;50.994;13.650;2023-04-24T07:09:11;3.55;;;0.93;;
76131;SDS011;64877;50.994;13.650;2023-04-24T07:11:38;2.35;;;0.60;;
76131;SDS011;64877;50.994;13.650;2023-04-24T07:14:05;2.67;;;0.63;;
76131;SDS011;64877;50.994;13.650;2023-04-24T07:16:31;3.75;;;0.60;;
76131;SDS011;64877;50.994;13.650;2023-04-24T07:18:56;3.83;;;0.70;;
76131;SDS011;64877;50.994;13.650;2023-04-24T07:21:22;6.30;;;0.85;;
76131;SDS011;64877;50.994;13.650;2023-04-24T07:23:47;1.27;;;0.50;;
76131;SDS011;64877;50.994;13.650;2023-04-24T07:26:13;1.27;;;0.40;;
76131;SDS011;64877;50.994;13.650;2023-04-24T07:28:39;1.90;;;0.80;;
76131;SDS011;64877;50.994;13.650;2023-04-24T07:31:05;6.93;;;0.80;;
76131;SDS011;64877;50.994;13.650;2023-04-24T07:33:31;4.47;;;1.10;;
76131;SDS011;64877;50.994;13.650;2023-04-24T07:35:57;2.70;;;1.00;;
76131;SDS011;64877;50.994;13.650;2023-04-24T07:38:22;3.95;;;0.70;;
76131;SDS011;64877;50.994;13.650;2023-04-24T07:40:48;2.13;;;0.60;;
76131;SDS011;64877;50.994;13.650;2023-04-24T07:43:14;1.20;;;0.50;;
76131;SDS011;64877;50.994;13.650;2023-04-24T07:45:39;1.45;;;0.43;;
76131;SDS011;64877;50.994;13.650;2023-04-24T07:48:05;4.03;;;0.85;;
76131;SDS011;64877;50.994;13.650;2023-04-24T07:50:31;2.88;;;0.95;;
76131;SDS011;64877;50.994;13.650;2023-04-24T07:52:56;1.67;;;0.40;;
76131;SDS011;64877;50.994;13.650;2023-04-24T07:55:22;3.55;;;1.30;;
76131;SDS011;64877;50.994;13.650;2023-04-24T07:57:48;3.47;;;0.82;;
76131;SDS011;64877;50.994;13.650;2023-04-24T08:00:13;4.30;;;1.00;;
76131;SDS011;64877;50.994;13.650;2023-04-24T08:02:39;3.35;;;0.90;;
76131;SDS011;64877;50.994;13.650;2023-04-24T08:05:04;2.35;;;0.65;;
76131;SDS011;64877;50.994;13.650;2023-04-24T08:07:30;2.92;;;0.50;;
76131;SDS011;64877;50.994;13.650;2023-04-24T08:09:56;1.63;;;0.40;;
76131;SDS011;64877;50.994;13.650;2023-04-24T08:12:21;4.05;;;1.00;;
76131;SDS011;64877;50.994;13.650;2023-04-24T08:14:47;2.00;;;0.40;;
76131;SDS011;64877;50.994;13.650;2023-04-24T08:17:12;3.65;;;0.70;;
76131;SDS011;64877;50.994;13.650;2023-04-24T08:19:39;0.82;;;0.30;;
76131;SDS011;64877;50.994;13.650;2023-04-24T08:22:09;1.15;;;0.43;;
76131;SDS011;64877;50.994;13.650;2023-04-24T08:24:34;1.58;;;0.52;;
76131;SDS011;64877;50.994;13.650;2023-04-24T08:27:00;1.75;;;0.65;;
76131;SDS011;64877;50.994;13.650;2023-04-24T08:29:26;2.22;;;0.57;;
76131;SDS011;64877;50.994;13.650;2023-04-24T08:31:51;4.60;;;0.57;;
76131;SDS011;64877;50.994;13.650;2023-04-24T08:34:19;1.95;;;0.50;;
76131;SDS011;64877;50.994;13.650;2023-04-24T08:36:44;4.20;;;0.40;;
76131;SDS011;64877;50.994;13.650;2023-04-24T08:39:10;2.35;;;0.70;;
76131;SDS011;64877;50.994;13.650;2023-04-24T08:41:35;4.25;;;0.75;;
76131;SDS011;64877;50.994;13.650;2023-04-24T08:44:02;1.40;;;0.45;;
76131;SDS011;64877;50.994;13.650;2023-04-24T08:46:28;2.53;;;0.52;;
76131;SDS011;64877;50.994;13.650;2023-04-24T08:48:55;2.55;;;0.52;;
76131;SDS011;64877;50.994;13.650;2023-04-24T08:51:21;2.30;;;0.47;;
76131;SDS011;64877;50.994;13.650;2023-04-24T08:53:47;3.17;;;0.65;;
76131;SDS011;64877;50.994;13.650;2023-04-24T08:56:13;3.58;;;0.82;;
76131;SDS011;64877;50.994;13.650;2023-04-24T08:58:39;3.65;;;0.98;;
76131;SDS011;64877;50.994;13.650;2023-04-24T09:01:06;3.42;;;1.05;;
76131;SDS011;64877;50.994;13.650;2023-04-24T09:03:32;3.20;;;1.10;;
76131;SDS011;64877;50.994;13.650;2023-04-24T09:05:58;2.58;;;0.73;;
76131;SDS011;64877;50.994;13.650;2023-04-24T09:08:25;3.38;;;0.57;;
76131;SDS011;64877;50.994;13.650;2023-04-24T09:10:53;3.42;;;0.55;;
76131;SDS011;64877;50.994;13.650;2023-04-24T09:13:18;3.05;;;0.50;;
76131;SDS011;64877;50.994;13.650;2023-04-24T09:15:45;1.17;;;0.30;;
76131;SDS011;64877;50.994;13.650;2023-04-24T09:18:10;1.92;;;0.60;;
76131;SDS011;64877;50.994;13.650;2023-04-24T09:20:56;3.33;;;0.68;;
76131;SDS011;64877;50.994;13.650;2023-04-24T09:23:26;1.77;;;0.75;;
76131;SDS011;64877;50.994;13.650;2023-04-24T09:25:56;2.53;;;0.80;;
76131;SDS011;64877;50.994;13.650;2023-04-24T09:28:26;5.38;;;0.70;;
76131;SDS011;64877;50.994;13.650;2023-04-24T09:31:17;1.60;;;0.60;;
76131;SDS011;64877;50.994;13.650;2023-04-24T09:34:02;1.05;;;0.40;;
76131;SDS011;64877;50.994;13.650;2023-04-24T09:36:40;4.78;;;1.50;;
76131;SDS011;64877;50.994;13.650;2023-04-24T09:39:14;1.88;;;0.55;;
76131;SDS011;64877;50.994;13.650;2023-04-24T09:41:47;1.77;;;0.52;;
76131;SDS011;64877;50.994;13.650;2023-04-24T09:44:22;1.23;;;0.32;;
76131;SDS011;64877;50.994;13.650;2023-04-24T09:49:25;2.22;;;0.70;;
76131;SDS011;64877;50.994;13.650;2023-04-24T09:51:52;2.92;;;0.93;;
76131;SDS011;64877;50.994;13.650;2023-04-24T09:54:27;1.98;;;0.50;;
76131;SDS011;64877;50.994;13.650;2023-04-24T09:56:52;2.15;;;0.60;;
76131;SDS011;64877;50.994;13.650;2023-04-24T09:59:19;1.17;;;0.40;;
76131;SDS011;64877;50.994;13.650;2023-04-24T10:01:45;0.82;;;0.40;;
76131;SDS011;64877;50.994;13.650;2023-04-24T10:06:50;2.30;;;0.50;;
76131;SDS011;64877;50.994;13.650;2023-04-24T10:09:18;1.25;;;0.40;;
76131;SDS011;64877;50.994;13.650;2023-04-24T10:11:45;1.77;;;0.52;;
76131;SDS011;64877;50.994;13.650;2023-04-24T10:14:13;2.25;;;0.60;;
76131;SDS011;64877;50.994;13.650;2023-04-24T10:16:40;0.95;;;0.38;;
76131;SDS011;64877;50.994;13.650;2023-04-24T10:19:06;3.88;;;1.10;;
76131;SDS011;64877;50.994;13.650;2023-04-24T10:21:32;2.08;;;0.68;;
76131;SDS011;64877;50.994;13.650;2023-04-24T10:23:59;3.80;;;0.80;;
76131;SDS011;64877;50.994;13.650;2023-04-24T10:26:28;2.78;;;0.75;;
76131;SDS011;64877;50.994;13.650;2023-04-24T10:28:54;2.65;;;0.70;;
76131;SDS011;64877;50.994;13.650;2023-04-24T10:31:22;2.58;;;0.73;;
76131;SDS011;64877;50.994;13.650;2023-04-24T10:33:48;2.45;;;0.60;;
76131;SDS011;64877;50.994;13.650;2023-04-24T10:36:16;1.95;;;0.77;;
76131;SDS011;64877;50.994;13.650;2023-04-24T10:38:43;2.33;;;0.80;;
76131;SDS011;64877;50.994;13.650;2023-04-24T10:41:12;3.13;;;0.80;;
76131;SDS011;64877;50.994;13.650;2023-04-24T10:44:10;1.75;;;0.70;;
76131;SDS011;64877;50.994;13.650;2023-04-24T10:46:37;1.35;;;0.35;;
76131;SDS011;64877;50.994;13.650;2023-04-24T10:49:04;3.35;;;0.47;;
76131;SDS011;64877;50.994;13.650;2023-04-24T10:51:46;2.00;;;0.50;;
76131;SDS011;64877;50.994;13.650;2023-04-24T10:59:43;3.75;;;0.52;;
76131;SDS011;64877;50.994;13.650;2023-04-24T11:02:08;1.70;;;0.50;;
76131;SDS011;64877;50.994;13.650;2023-04-24T11:04:34;1.63;;;0.73;;
76131;SDS011;64877;50.994;13.650;2023-04-24T11:07:00;3.63;;;0.60;;
76131;SDS011;64877;50.994;13.650;2023-04-24T11:09:27;1.48;;;0.40;;
76131;SDS011;64877;50.994;13.650;2023-04-24T11:12:04;1.00;;;0.50;;
76131;SDS011;64877;50.994;13.650;2023-04-24T11:17:35;4.72;;;0.40;;
76131;SDS011;64877;50.994;13.650;2023-04-24T11:20:08;2.00;;;0.50;;
76131;SDS011;64877;50.994;13.650;2023-04-24T11:22:37;1.70;;;0.50;;
76131;SDS011;64877;50.994;13.650;2023-04-24T11:25:05;0.95;;;0.40;;
76131;SDS011;64877;50.994;13.650;2023-04-24T11:27:32;2.00;;;0.30;;
76131;SDS011;64877;50.994;13.650;2023-04-24T11:30:07;1.83;;;0.20;;
76131;SDS011;64877;50.994;13.650;2023-04-24T11:34:59;1.27;;;0.40;;
76131;SDS011;64877;50.994;13.650;2023-04-24T11:37:33;2.50;;;0.60;;
76131;SDS011;64877;50.994;13.650;2023-04-24T11:40:01;0.85;;;0.32;;
76131;SDS011;64877;50.994;13.650;2023-04-24T11:42:27;0.88;;;0.40;;
76131;SDS011;64877;50.994;13.650;2023-04-24T11:44:53;1.30;;;0.55;;
76131;SDS011;64877;50.994;13.650;2023-04-24T11:47:29;3.17;;;0.55;;
76131;SDS011;64877;50.994;13.650;2023-04-24T11:49:55;1.98;;;0.70;;
76131;SDS011;64877;50.994;13.650;2023-04-24T11:52:21;3.28;;;1.00;;
76131;SDS011;64877;50.994;13.650;2023-04-24T11:54:47;1.08;;;0.60;;
76131;SDS011;64877;50.994;13.650;2023-04-24T11:57:14;1.00;;;0.50;;
76131;SDS011;64877;50.994;13.650;2023-04-24T11:59:40;1.30;;;0.45;;
76131;SDS011;64877;50.994;13.650;2023-04-24T12:02:05;1.75;;;0.50;;
76131;SDS011;64877;50.994;13.650;2023-04-24T12:04:40;2.70;;;0.85;;
76131;SDS011;64877;50.994;13.650;2023-04-24T12:07:06;4.15;;;0.55;;
76131;SDS011;64877;50.994;13.650;2023-04-24T12:09:40;1.65;;;0.50;;
76131;SDS011;64877;50.994;13.650;2023-04-24T12:12:20;2.05;;;0.50;;
76131;SDS011;64877;50.994;13.650;2023-04-24T12:14:52;1.95;;;0.70;;
76131;SDS011;64877;50.994;13.650;2023-04-24T12:17:29;1.35;;;0.50;;
76131;SDS011;64877;50.994;13.650;2023-04-24T12:19:57;2.70;;;0.70;;
76131;SDS011;64877;50.994;13.650;2023-04-24T12:22:25;1.33;;;0.40;;
76131;SDS011;64877;50.994;13.650;2023-04-24T12:25:03;1.23;;;0.60;;
76131;SDS011;64877;50.994;13.650;2023-04-24T12:27:33;1.88;;;0.60;;
76131;SDS011;64877;50.994;13.650;2023-04-24T12:29:59;1.58;;;0.70;;
76131;SDS011;64877;50.994;13.650;2023-04-24T12:32:27;1.13;;;0.47;;
76131;SDS011;64877;50.994;13.650;2023-04-24T12:34:53;1.58;;;0.40;;
76131;SDS011;64877;50.994;13.650;2023-04-24T12:37:20;0.77;;;0.30;;
76131;SDS011;64877;50.994;13.650;2023-04-24T12:40:01;3.50;;;0.63;;
76131;SDS011;64877;50.994;13.650;2023-04-24T12:42:32;1.35;;;0.60;;
76131;SDS011;64877;50.994;13.650;2023-04-24T12:44:58;1.20;;;0.60;;
76131;SDS011;64877;50.994;13.650;2023-04-24T12:47:25;2.88;;;0.70;;
76131;SDS011;64877;50.994;13.650;2023-04-24T12:49:51;1.58;;;0.50;;
76131;SDS011;64877;50.994;13.650;2023-04-24T12:52:18;1.02;;;0.50;;
76131;SDS011;64877;50.994;13.650;2023-04-24T12:54:45;1.35;;;0.60;;
76131;SDS011;64877;50.994;13.650;2023-04-24T12:57:11;2.90;;;0.80;;
76131;SDS011;64877;50.994;13.650;2023-04-24T12:59:36;2.30;;;0.60;;
76131;SDS011;64877;50.994;13.650;2023-04-24T13:02:01;1.73;;;0.60;;
76131;SDS011;64877;50.994;13.650;2023-04-24T13:04:27;1.70;;;0.50;;
76131;SDS011;64877;50.994;13.650;2023-04-24T13:06:53;1.02;;;0.50;;
76131;SDS011;64877;50.994;13.650;2023-04-24T13:09:18;1.25;;;0.60;;
76131;SDS011;64877;50.994;13.650;2023-04-24T13:11:43;1.25;;;0.47;;
76131;SDS011;64877;50.994;13.650;2023-04-24T13:14:09;1.90;;;0.60;;
76131;SDS011;64877;50.994;13.650;2023-04-24T13:16:34;2.00;;;0.60;;
76131;SDS011;64877;50.994;13.650;2023-04-24T13:19:00;1.65;;;0.60;;
76131;SDS011;64877;50.994;13.650;2023-04-24T13:21:25;0.90;;;0.50;;
76131;SDS011;64877;50.994;13.650;2023-04-24T13:23:51;0.85;;;0.50;;
76131;SDS011;64877;50.994;13.650;2023-04-24T13:26:16;1.38;;;0.50;;
76131;SDS011;64877;50.994;13.650;2023-04-24T13:28:42;1.17;;;0.43;;
76131;SDS011;64877;50.994;13.650;2023-04-24T13:31:07;1.38;;;0.45;;
76131;SDS011;64877;50.994;13.650;2023-04-24T13:33:33;2.40;;;0.70;;
76131;SDS011;64877;50.994;13.650;2023-04-24T13:35:58;1.50;;;0.50;;
76131;SDS011;64877;50.994;13.650;2023-04-24T13:38:24;2.03;;;0.52;;
76131;SDS011;64877;50.994;13.650;2023-04-24T13:40:49;1.00;;;0.60;;
76131;SDS011;64877;50.994;13.650;2023-04-24T13:43:14;0.90;;;0.40;;
76131;SDS011;64877;50.994;13.650;2023-04-24T13:45:40;1.40;;;0.55;;
76131;SDS011;64877;50.994;13.650;2023-04-24T13:48:06;3.20;;;0.85;;
76131;SDS011;64877;50.994;13.650;2023-04-24T13:50:31;1.73;;;0.65;;
76131;SDS011;64877;50.994;13.650;2023-04-24T13:52:56;2.38;;;0.68;;
76131;SDS011;64877;50.994;13.650;2023-04-24T13:55:22;4.25;;;0.73;;
76131;SDS011;64877;50.994;13.650;2023-04-24T13:57:47;2.03;;;0.60;;
76131;SDS011;64877;50.994;13.650;2023-04-24T14:00:14;1.45;;;0.47;;
76131;SDS011;64877;50.994;13.650;2023-04-24T14:02:40;1.00;;;0.52;;
76131;SDS011;64877;50.994;13.650;2023-04-24T14:05:05;1.63;;;0.75;;
76131;SDS011;64877;50.994;13.650;2023-04-24T14:07:31;1.15;;;0.60;;
76131;SDS011;64877;50.994;13.650;2023-04-24T14:09:56;2.30;;;0.90;;
76131;SDS011;64877;50.994;13.650;2023-04-24T14:12:22;2.15;;;0.70;;
76131;SDS011;64877;50.994;13.650;2023-04-24T14:14:47;1.67;;;0.75;;
76131;SDS011;64877;50.994;13.650;2023-04-24T14:17:13;2.67;;;1.02;;
76131;SDS011;64877;50.994;13.650;2023-04-24T14:19:39;1.10;;;0.60;;
76131;SDS011;64877;50.994;13.650;2023-04-24T14:22:04;4.60;;;0.85;;
76131;SDS011;64877;50.994;13.650;2023-04-24T14:24:30;2.00;;;0.80;;
76131;SDS011;64877;50.994;13.650;2023-04-24T14:26:55;1.30;;;0.68;;
76131;SDS011;64877;50.994;13.650;2023-04-24T14:29:21;2.95;;;0.70;;
76131;SDS011;64877;50.994;13.650;2023-04-24T14:31:46;4.60;;;0.70;;
76131;SDS011;64877;50.994;13.650;2023-04-24T14:34:13;1.30;;;0.70;;
76131;SDS011;64877;50.994;13.650;2023-04-24T14:36:38;2.95;;;0.90;;
76131;SDS011;64877;50.994;13.650;2023-04-24T14:39:04;1.23;;;0.55;;
76131;SDS011;64877;50.994;13.650;2023-04-24T14:41:31;3.55;;;0.70;;
76131;SDS011;64877;50.994;13.650;2023-04-24T14:44:00;2.45;;;0.63;;
76131;SDS011;64877;50.994;13.650;2023-04-24T14:46:29;2.83;;;0.80;;